Time;durP1;ratioP1;P1;durP2;ratioP2;P2;SDS_P1;SDS_P2;PMS_P1;PMS_P2;Temp;Humidity;BMP_temperature;BMP_pressure;BME280_temperature;BME280_humidity;BME280_pressure;Samples;Min_cycle;Max_cycle;Signal;HPM_P1;HPM_P2
2023/05/27 00:02:26;;;;;;;17.95;4.50;;;7.30;99.90;;;;;;5007645;28;20098;-92
2023/05/27 00:05:16;;;;;;;14.88;4.18;;;7.20;99.90;;;;;;5019519;28;20049;-92
2023/05/27 00:08:02;;;;;;;16.85;4.22;;;7.10;99.90;;;;;;5018056;28;20135;-92
2023/05/27 00:10:48;;;;;;;15.23;5.40;;;7.10;99.90;;;;;;5008351;28;20086;-92
2023/05/27 00:13:19;;;;;;;19.35;5.60;;;7.10;99.90;;;;;;5016317;28;20057;-92
2023/05/27 00:16:03;;;;;;;17.17;4.88;;;7.10;99.90;;;;;;5034405;28;20051;-92
2023/05/27 00:18:32;;;;;;;15.45;5.35;;;6.50;99.90;;;;;;5018492;28;20037;-92
2023/05/27 00:21:21;;;;;;;20.77;5.65;;;7.00;99.90;;;;;;5017023;28;20088;-92
2023/05/27 00:24:00;;;;;;;19.17;5.70;;;6.80;99.90;;;;;;5020116;28;20048;-92
2023/05/27 00:26:40;;;;;;;21.13;5.73;;;7.80;99.90;;;;;;5012399;28;20478;-93
2023/05/27 00:29:28;;;;;;;16.02;5.05;;;7.00;99.90;;;;;;5034497;28;20044;-92
2023/05/27 00:32:03;;;;;;;46.60;6.05;;;7.00;99.90;;;;;;5012904;28;20056;-92
2023/05/27 00:34:44;;;;;;;13.02;4.57;;;7.00;99.90;;;;;;5011319;28;20053;-92
2023/05/27 00:37:33;;;;;;;15.80;4.75;;;7.00;99.90;;;;;;5028604;28;20049;-92
2023/05/27 00:40:19;;;;;;;25.75;5.20;;;7.00;99.90;;;;;;5030839;28;20049;-92
2023/05/27 00:43:09;;;;;;;19.10;5.53;;;7.10;99.90;;;;;;5017337;28;20481;-92
2023/05/27 00:46:01;;;;;;;25.40;5.82;;;7.20;99.90;;;;;;5010271;28;20119;-92
2023/05/27 00:48:33;;;;;;;25.73;5.97;;;7.20;99.90;;;;;;5011009;28;20045;-93
2023/05/27 00:51:04;;;;;;;23.48;5.53;;;7.30;99.90;;;;;;5010876;28;20049;-92
2023/05/27 00:53:40;;;;;;;16.48;5.28;;;7.50;99.90;;;;;;5029266;28;20049;-92
2023/05/27 00:56:10;;;;;;;26.38;6.32;;;7.40;99.90;;;;;;5022130;28;20041;-92
2023/05/27 00:58:45;;;;;;;24.38;6.80;;;7.40;99.90;;;;;;5015169;28;20037;-93
2023/05/27 01:01:59;;;;;;;21.85;5.72;;;7.30;99.90;;;;;;5007614;28;20080;-92
2023/05/27 01:04:49;;;;;;;;;;;;;;;;;;;;;
2023/05/27 01:07:29;;;;;;;25.17;6.30;;;7.10;99.90;;;;;;5026477;28;20120;-92
2023/05/27 01:10:28;;;;;;;19.27;6.07;;;7.00;99.90;;;;;;5014450;28;20061;-92
2023/05/27 01:13:06;;;;;;;15.93;5.05;;;7.00;99.90;;;;;;5029693;28;20041;-92
2023/05/27 01:15:44;;;;;;;18.90;5.45;;;6.90;99.90;;;;;;5032120;28;20075;-92
2023/05/27 01:18:16;;;;;;;21.58;5.40;;;7.50;99.90;;;;;;5025860;28;20080;-92
2023/05/27 01:21:01;;;;;;;24.33;6.50;;;6.90;99.90;;;;;;5035027;28;20045;-92
2023/05/27 01:23:28;;;;;;;21.30;6.13;;;7.90;99.90;;;;;;5031592;28;20052;-92
2023/05/27 01:26:13;;;;;;;23.45;5.70;;;8.00;99.90;;;;;;5014646;28;20056;-92
2023/05/27 01:28:43;;;;;;;29.70;6.78;;;7.00;99.90;;;;;;5016864;28;20045;-92
2023/05/27 01:31:27;;;;;;;28.48;6.10;;;7.40;99.90;;;;;;5002846;28;20143;-92
2023/05/27 01:34:06;;;;;;;23.33;6.13;;;7.10;99.90;;;;;;5028380;28;20088;-92
2023/05/27 01:37:26;;;;;;;19.40;5.55;;;7.30;99.90;;;;;;5018711;28;20057;-92
2023/05/27 01:39:41;;;;;;;24.73;5.57;;;7.20;99.90;;;;;;5014344;28;20588;-92
2023/05/27 01:42:19;;;;;;;21.45;5.90;;;7.30;99.90;;;;;;5015574;28;20048;-92
2023/05/27 01:45:35;;;;;;;20.60;5.50;;;7.50;99.90;;;;;;5016560;28;20056;-93
2023/05/27 01:48:10;;;;;;;22.55;5.38;;;8.00;99.90;;;;;;5035987;28;20143;-92
2023/05/27 01:50:57;;;;;;;19.60;5.38;;;7.30;99.90;;;;;;5036724;28;20075;-92
2023/05/27 01:54:05;;;;;;;24.02;5.80;;;7.20;99.90;;;;;;5034456;28;20045;-92
2023/05/27 01:56:52;;;;;;;26.98;5.40;;;7.20;99.90;;;;;;5009559;28;20056;-92
2023/05/27 01:59:24;;;;;;;21.52;5.72;;;7.60;99.90;;;;;;5005391;28;20409;-92
2023/05/27 02:02:16;;;;;;;25.58;6.03;;;7.20;99.90;;;;;;5016180;28;20064;-93
2023/05/27 02:04:48;;;;;;;26.38;6.13;;;7.30;99.90;;;;;;5015646;28;20041;-92
2023/05/27 02:07:24;;;;;;;19.60;6.13;;;7.30;99.90;;;;;;4995134;28;20049;-92
2023/05/27 02:09:52;;;;;;;20.25;6.13;;;7.20;99.90;;;;;;5010661;28;20136;-92
2023/05/27 02:12:30;;;;;;;19.20;5.32;;;7.30;99.90;;;;;;5016424;28;20048;-92
2023/05/27 02:15:09;;;;;;;27.73;6.28;;;7.50;99.90;;;;;;5016211;28;20044;-92
2023/05/27 02:17:50;;;;;;;21.65;5.25;;;7.30;99.90;;;;;;5015487;28;20033;-92
2023/05/27 02:20:25;;;;;;;27.17;6.93;;;7.10;99.90;;;;;;5003987;28;20051;-92
2023/05/27 02:23:17;;;;;;;22.52;5.10;;;7.30;99.90;;;;;;5018929;28;20076;-92
2023/05/27 02:25:49;;;;;;;27.98;5.10;;;7.30;99.90;;;;;;5037885;28;20087;-92
2023/05/27 02:28:30;;;;;;;25.40;5.50;;;7.40;99.90;;;;;;5023053;28;20075;-92
2023/05/27 02:31:16;;;;;;;23.63;5.50;;;7.40;99.90;;;;;;5016613;28;20111;-92
2023/05/27 02:34:02;;;;;;;33.15;5.90;;;7.50;99.90;;;;;;5002857;28;20082;-92
2023/05/27 02:36:47;;;;;;;26.60;5.35;;;7.60;99.90;;;;;;5033980;28;20174;-92
2023/05/27 02:39:18;;;;;;;20.75;4.95;;;7.60;99.90;;;;;;5016069;28;20041;-92
2023/05/27 02:41:52;;;;;;;30.20;5.85;;;7.70;99.90;;;;;;5015184;28;20080;-92
2023/05/27 02:44:26;;;;;;;27.15;6.00;;;7.80;99.90;;;;;;5009604;28;20528;-91
2023/05/27 02:47:19;;;;;;;22.40;4.47;;;7.80;99.90;;;;;;5009488;28;20485;-92
2023/05/27 02:49:53;;;;;;;19.05;5.10;;;8.80;99.90;;;;;;5015366;28;20135;-92
2023/05/27 02:52:43;;;;;;;28.63;5.13;;;7.90;99.90;;;;;;5016364;28;20051;-92
2023/05/27 02:55:29;;;;;;;22.80;5.20;;;7.60;99.90;;;;;;5012014;28;20052;-91
2023/05/27 02:58:19;;;;;;;24.88;5.35;;;8.00;99.90;;;;;;5010106;28;20037;-92
2023/05/27 03:01:02;;;;;;;30.15;5.13;;;8.50;99.90;;;;;;5014468;28;20053;-92
2023/05/27 03:03:29;;;;;;;25.55;5.45;;;7.80;99.90;;;;;;5014878;28;20124;-92
2023/05/27 03:06:06;;;;;;;25.88;5.60;;;8.10;99.90;;;;;;5015299;28;20049;-92
2023/05/27 03:08:52;;;;;;;23.17;5.40;;;7.90;99.90;;;;;;5009398;28;20041;-92
2023/05/27 03:11:17;;;;;;;24.80;5.10;;;7.70;99.90;;;;;;5009629;28;20061;-92
2023/05/27 03:13:43;;;;;;;22.40;5.57;;;8.00;99.90;;;;;;5013852;28;20087;-92
2023/05/27 03:16:12;;;;;;;23.58;5.03;;;8.00;99.90;;;;;;5014838;28;20041;-92
2023/05/27 03:18:53;;;;;;;23.63;5.30;;;8.00;99.90;;;;;;5014920;28;20099;-92
2023/05/27 03:21:32;;;;;;;25.60;4.85;;;8.00;99.90;;;;;;5017095;28;20041;-91
2023/05/27 03:24:15;;;;;;;29.53;6.23;;;8.20;99.90;;;;;;5013331;28;20473;-91
2023/05/27 03:26:50;;;;;;;25.88;4.82;;;7.90;99.90;;;;;;5001052;28;20048;-92
2023/05/27 03:29:21;;;;;;;30.50;5.15;;;8.70;99.90;;;;;;5026468;28;20052;-91
2023/05/27 03:32:04;;;;;;;17.73;4.97;;;8.50;99.90;;;;;;5015084;28;20127;-91
2023/05/27 03:34:38;;;;;;;22.95;5.30;;;7.90;99.90;;;;;;5013467;28;20179;-91
2023/05/27 03:37:37;;;;;;;23.40;5.28;;;7.90;99.90;;;;;;5014605;28;20044;-91
2023/05/27 03:40:29;;;;;;;27.73;5.90;;;8.00;99.90;;;;;;4999924;28;20128;-90
2023/05/27 03:43:06;;;;;;;26.63;5.15;;;8.00;99.90;;;;;;5003160;28;20082;-90
2023/05/27 03:45:40;;;;;;;23.55;5.38;;;8.20;99.90;;;;;;5013242;28;20063;-90
2023/05/27 03:48:11;;;;;;;26.20;5.63;;;8.10;99.90;;;;;;5013611;28;20076;-90
2023/05/27 03:51:13;;;;;;;27.42;5.50;;;8.50;99.90;;;;;;5032376;28;20526;-91
2023/05/27 03:53:59;;;;;;;26.80;5.85;;;7.90;99.90;;;;;;5013874;28;20135;-91
2023/05/27 03:56:37;;;;;;;26.80;5.45;;;8.20;99.90;;;;;;5015562;28;20099;-91
2023/05/27 03:59:17;;;;;;;25.33;5.88;;;8.30;99.90;;;;;;5018092;28;20072;-91
2023/05/27 04:01:52;;;;;;;;;;;8.30;99.90;;;;;;5016072;28;20123;-91
2023/05/27 04:04:31;;;;;;;31.15;6.13;;;8.10;99.90;;;;;;5013559;28;20373;-91
2023/05/27 04:07:12;;;;;;;26.27;6.03;;;8.40;99.90;;;;;;5014352;28;20155;-91
2023/05/27 04:09:41;;;;;;;;;;;8.40;99.90;;;;;;5013709;28;20164;-91
2023/05/27 04:12:17;;;;;;;19.55;5.75;;;8.50;99.90;;;;;;5014021;28;20375;-91
2023/05/27 04:15:06;;;;;;;26.00;5.72;;;8.50;99.90;;;;;;5008510;28;20055;-91
2023/05/27 04:17:45;;;;;;;27.13;6.07;;;8.60;99.90;;;;;;5014649;28;20505;-91
2023/05/27 04:20:19;;;;;;;28.73;5.68;;;8.70;99.90;;;;;;5003360;28;20575;-91
2023/05/27 04:22:48;;;;;;;23.15;5.68;;;8.80;99.90;;;;;;5014459;28;20041;-91
2023/05/27 04:25:22;;;;;;;25.13;5.30;;;9.10;99.90;;;;;;5016925;28;20147;-91
2023/05/27 04:28:06;;;;;;;28.23;5.85;;;9.00;99.90;;;;;;5026887;28;20041;-91
2023/05/27 04:31:03;;;;;;;25.55;6.03;;;9.30;99.90;;;;;;5024193;28;20472;-91
2023/05/27 04:33:35;;;;;;;27.30;5.50;;;9.00;99.90;;;;;;5023891;28;20045;-91
2023/05/27 04:36:36;;;;;;;;;;;;;;;;;;;;;
2023/05/27 04:39:10;;;;;;;18.10;5.22;;;9.70;99.90;;;;;;5030754;28;20079;-91
2023/05/27 04:41:56;;;;;;;21.00;4.78;;;9.40;99.90;;;;;;5006770;28;20045;-91
2023/05/27 04:44:40;;;;;;;24.38;4.90;;;9.50;99.90;;;;;;5021930;28;20063;-91
2023/05/27 04:47:15;;;;;;;22.25;5.05;;;9.60;99.90;;;;;;5021336;28;20049;-91
2023/05/27 04:49:53;;;;;;;26.73;5.15;;;9.70;99.90;;;;;;5004274;28;20189;-91
2023/05/27 04:52:41;;;;;;;25.33;4.93;;;9.90;99.90;;;;;;5020258;28;20186;-91
2023/05/27 04:55:16;;;;;;;24.65;4.90;;;9.80;99.90;;;;;;5003298;28;20425;-92
2023/05/27 04:58:10;;;;;;;22.15;5.28;;;10.00;99.90;;;;;;5024288;28;20056;-91
2023/05/27 05:00:52;;;;;;;21.55;4.72;;;9.80;99.90;;;;;;5016198;28;20051;-91
2023/05/27 05:04:10;;;;;;;22.35;4.72;;;9.80;99.90;;;;;;5014965;28;20560;-91
2023/05/27 05:06:52;;;;;;;25.20;4.82;;;10.10;99.90;;;;;;5018104;28;20398;-91
2023/05/27 05:09:28;;;;;;;30.80;5.72;;;9.80;99.90;;;;;;5016689;28;20532;-92
2023/05/27 05:12:13;;;;;;;26.65;4.95;;;9.30;99.90;;;;;;5018495;28;20044;-92
2023/05/27 05:14:51;;;;;;;20.00;4.60;;;9.80;99.90;;;;;;5014917;28;20649;-91
2023/05/27 05:18:01;;;;;;;22.15;4.60;;;10.50;99.90;;;;;;5030414;28;20052;-91
2023/05/27 05:20:29;;;;;;;19.77;4.43;;;9.30;99.90;;;;;;4992157;28;20049;-92
2023/05/27 05:23:01;;;;;;;20.70;3.97;;;9.90;99.90;;;;;;5008630;28;20090;-91
2023/05/27 05:25:41;;;;;;;21.90;4.40;;;9.90;99.90;;;;;;5006283;28;20060;-89
2023/05/27 05:28:12;;;;;;;22.35;4.78;;;9.90;99.90;;;;;;5010788;28;20049;-91
2023/05/27 05:31:10;;;;;;;24.33;4.65;;;9.90;99.90;;;;;;4994943;28;20119;-90
2023/05/27 05:33:52;;;;;;;26.73;5.20;;;9.80;99.90;;;;;;5006788;28;20068;-91
2023/05/27 05:36:26;;;;;;;26.05;5.43;;;10.10;99.90;;;;;;5014070;28;20059;-91
2023/05/27 05:38:58;;;;;;;27.65;5.47;;;9.90;99.90;;;;;;5010693;28;20049;-91
2023/05/27 05:41:49;;;;;;;22.48;5.03;;;10.00;99.90;;;;;;5026295;28;20049;-91
2023/05/27 05:44:53;;;;;;;25.50;5.97;;;10.00;99.90;;;;;;5011182;28;20053;-92
2023/05/27 05:47:10;;;;;;;23.92;5.18;;;10.10;99.90;;;;;;5028502;28;20485;-92
2023/05/27 05:49:58;;;;;;;22.92;4.88;;;9.70;99.90;;;;;;5016886;28;20076;-95
2023/05/27 05:52:30;;;;;;;23.48;4.82;;;10.30;99.90;;;;;;5013871;28;20045;-93
2023/05/27 05:55:19;;;;;;;22.75;4.53;;;10.30;99.90;;;;;;5024444;28;20061;-91
2023/05/27 05:58:02;;;;;;;19.05;4.38;;;10.40;99.90;;;;;;5061632;28;20127;-92
2023/05/27 06:00:31;;;;;;;25.58;4.97;;;10.40;99.90;;;;;;5012977;28;20090;-93
2023/05/27 06:03:22;;;;;;;24.48;6.15;;;10.60;99.90;;;;;;5011591;28;20033;-93
2023/05/27 06:06:33;;;;;;;31.55;5.45;;;10.90;99.90;;;;;;5006411;28;20080;-95
2023/05/27 06:09:40;;;;;;;24.77;5.03;;;10.70;99.90;;;;;;5008492;28;20052;-94
2023/05/27 06:12:40;;;;;;;23.70;4.78;;;10.80;99.90;;;;;;5011926;28;20513;-96
2023/05/27 06:15:18;;;;;;;27.83;5.68;;;12.10;99.90;;;;;;5001708;28;20059;-94
2023/05/27 06:18:11;;;;;;;24.50;4.85;;;11.20;99.90;;;;;;5008069;28;20142;-94
2023/05/27 06:20:58;;;;;;;31.63;5.63;;;11.70;99.90;;;;;;5021542;28;20073;-95
2023/05/27 06:23:45;;;;;;;24.60;4.55;;;11.80;99.90;;;;;;5031435;28;20469;-96
2023/05/27 06:26:27;;;;;;;;;;;;;;;;;;;;;
2023/05/27 06:29:18;;;;;;;;;;;;;;;;;;;;;
2023/05/27 06:32:31;;;;;;;29.88;5.50;;;12.00;99.90;;;;;;5031580;28;20492;-95
2023/05/27 06:35:22;;;;;;;24.77;4.60;;;12.10;99.90;;;;;;5012707;28;20053;-95
2023/05/27 06:38:04;;;;;;;29.52;5.88;;;12.20;99.90;;;;;;5003055;28;20044;-94
2023/05/27 06:40:49;;;;;;;28.92;5.65;;;12.30;99.90;;;;;;5022069;28;20049;-94
2023/05/27 06:43:42;;;;;;;29.35;5.82;;;12.30;99.90;;;;;;5000911;28;20049;-94
2023/05/27 06:46:35;;;;;;;;;;;;;;;;;;;;;
2023/05/27 06:49:16;;;;;;;25.65;5.53;;;12.30;99.90;;;;;;5030496;28;20072;-94
2023/05/27 06:52:28;;;;;;;;;;;;;;;;;;;;;
2023/05/27 06:55:49;;;;;;;21.20;5.10;;;12.50;99.90;;;;;;4988922;28;20045;-95
2023/05/27 06:58:14;;;;;;;21.98;5.55;;;12.60;99.90;;;;;;5021296;28;20048;-94
2023/05/27 07:01:08;;;;;;;25.15;4.90;;;12.90;99.90;;;;;;5006931;28;20087;-94
2023/05/27 07:04:08;;;;;;;27.08;5.05;;;13.00;99.90;;;;;;5015217;28;20084;-96
2023/05/27 07:10:08;;;;;;;26.63;5.57;;;13.10;99.90;;;;;;4996420;28;20044;-96
2023/05/27 07:12:54;;;;;;;29.38;5.50;;;13.20;99.90;;;;;;5016422;28;20059;-96
2023/05/27 07:15:34;;;;;;;26.50;4.90;;;13.30;99.90;;;;;;4959443;28;20604;-96
2023/05/27 07:18:52;;;;;;;25.52;5.43;;;14.00;99.90;;;;;;5033517;28;20132;-95
2023/05/27 07:21:54;;;;;;;27.35;5.68;;;13.30;99.90;;;;;;5024892;28;20084;-96
2023/05/27 07:24:26;;;;;;;21.98;5.40;;;13.70;99.90;;;;;;5011593;28;20057;-96
2023/05/27 07:27:28;;;;;;;23.40;5.47;;;13.80;99.90;;;;;;5006171;28;20041;-96
2023/05/27 07:30:40;;;;;;;32.42;5.03;;;13.80;99.90;;;;;;5009981;28;20413;-96
2023/05/27 07:33:34;;;;;;;24.05;5.65;;;14.10;99.90;;;;;;5030035;28;20144;-96
2023/05/27 07:36:29;;;;;;;23.33;4.82;;;14.10;99.90;;;;;;5002992;28;20044;-96
2023/05/27 07:39:18;;;;;;;21.60;5.45;;;14.10;99.90;;;;;;5016931;28;20033;-96
2023/05/27 07:48:35;;;;;;;26.23;4.57;;;14.20;99.90;;;;;;5034439;28;20041;-93
2023/05/27 07:51:01;;;;;;;25.27;5.55;;;14.10;99.90;;;;;;5052747;28;20091;-96
2023/05/27 07:53:56;;;;;;;26.60;5.28;;;14.10;99.90;;;;;;5021046;28;20148;-96
2023/05/27 07:56:27;;;;;;;26.35;5.57;;;14.10;99.90;;;;;;5004647;28;20053;-95
2023/05/27 08:01:43;;;;;;;29.00;6.25;;;14.40;99.90;;;;;;5232279;23;20059;-96
2023/05/27 08:04:08;;;;;;;24.75;4.70;;;14.50;99.90;;;;;;5021773;28;20044;-96
2023/05/27 08:06:35;;;;;;;20.23;5.78;;;14.70;99.90;;;;;;5019127;28;20373;-95
2023/05/27 08:09:11;;;;;;;19.30;4.43;;;14.70;99.90;;;;;;5024858;28;20335;-96
2023/05/27 08:11:38;;;;;;;22.50;5.15;;;14.80;99.90;;;;;;5021866;28;20053;-96
2023/05/27 08:14:15;;;;;;;22.73;5.28;;;14.80;99.90;;;;;;5029142;28;20037;-96
2023/05/27 08:16:42;;;;;;;22.48;4.28;;;14.70;99.90;;;;;;5029245;28;20120;-93
2023/05/27 08:19:10;;;;;;;25.25;5.25;;;14.60;99.90;;;;;;5017186;28;20036;-96
2023/05/27 08:21:45;;;;;;;21.83;4.97;;;14.60;99.90;;;;;;5020522;28;20128;-96
2023/05/27 08:24:24;;;;;;;23.38;5.20;;;14.70;99.90;;;;;;5014938;28;20044;-96
2023/05/27 08:26:56;;;;;;;18.80;5.00;;;14.90;99.90;;;;;;5012841;28;20100;-96
2023/05/27 08:30:12;;;;;;;30.42;5.15;;;15.00;99.90;;;;;;5021285;28;20148;-96
2023/05/27 08:32:40;;;;;;;21.02;4.28;;;15.30;99.90;;;;;;5035227;28;20511;-95
2023/05/27 08:35:06;;;;;;;27.95;5.40;;;15.40;99.90;;;;;;5020073;28;20055;-96
2023/05/27 08:37:32;;;;;;;25.38;5.70;;;15.50;99.90;;;;;;5018948;28;20482;-96
2023/05/27 08:40:00;;;;;;;27.95;5.53;;;15.80;99.90;;;;;;5020408;28;20122;-96
2023/05/27 08:42:26;;;;;;;26.85;5.15;;;15.90;99.90;;;;;;5020807;28;20053;-93
2023/05/27 08:45:22;;;;;;;21.90;4.72;;;16.00;99.90;;;;;;5012186;28;20041;-96
2023/05/27 08:48:01;;;;;;;20.52;4.68;;;16.10;99.90;;;;;;5061647;28;20530;-96
2023/05/27 08:55:48;;;;;;;21.15;4.47;;;16.10;99.90;;;;;;5062700;28;20049;-96
2023/05/27 08:58:19;;;;;;;21.73;5.43;;;16.10;99.90;;;;;;5038319;28;20091;-96
2023/05/27 09:00:49;;;;;;;22.00;5.25;;;16.40;99.90;;;;;;5030435;28;20072;-96
2023/05/27 09:03:16;;;;;;;20.27;5.05;;;16.10;99.90;;;;;;5033032;28;20065;-96
2023/05/27 09:05:45;;;;;;;21.17;5.05;;;16.70;99.90;;;;;;5027585;28;20501;-96
2023/05/27 09:08:14;;;;;;;21.65;5.03;;;16.60;99.90;;;;;;5053449;28;20099;-96
2023/05/27 09:10:41;;;;;;;20.75;4.78;;;16.70;99.90;;;;;;5023131;28;20572;-96
2023/05/27 09:13:10;;;;;;;23.55;4.85;;;16.80;99.90;;;;;;5029961;28;20124;-96
2023/05/27 09:15:36;;;;;;;24.80;5.03;;;16.80;99.90;;;;;;5044927;28;20033;-96
2023/05/27 09:18:05;;;;;;;20.67;4.53;;;17.00;99.90;;;;;;5112149;22;20047;-94
2023/05/27 09:20:31;;;;;;;18.95;4.55;;;17.00;99.90;;;;;;4977065;28;20080;-96
2023/05/27 09:23:09;;;;;;;16.63;4.38;;;17.10;99.90;;;;;;5042584;23;20073;-96
2023/05/27 09:26:15;;;;;;;25.25;5.35;;;17.10;99.90;;;;;;5194414;22;20099;-96
2023/05/27 09:28:41;;;;;;;18.75;4.45;;;17.30;99.90;;;;;;5019346;28;20051;-96
2023/05/27 09:31:09;;;;;;;21.48;4.72;;;17.30;99.90;;;;;;5022591;28;20127;-96
2023/05/27 09:33:38;;;;;;;18.67;4.30;;;17.40;99.90;;;;;;5017454;28;20049;-96
2023/05/27 09:36:05;;;;;;;21.67;5.25;;;17.30;99.90;;;;;;5007494;28;20203;-96
2023/05/27 09:38:34;;;;;;;19.73;4.93;;;17.40;99.90;;;;;;5019402;28;20045;-96
2023/05/27 09:41:09;;;;;;;16.48;4.15;;;17.50;99.90;;;;;;5023377;28;20060;-96
2023/05/27 09:43:35;;;;;;;20.25;5.70;;;17.50;99.90;;;;;;5023344;28;20060;-96
2023/05/27 09:48:37;;;;;;;19.98;4.25;;;17.60;99.90;;;;;;5107229;22;20294;-95
2023/05/27 09:51:03;;;;;;;24.80;6.30;;;17.70;99.90;;;;;;5036118;28;20127;-96
2023/05/27 09:53:30;;;;;;;19.23;4.68;;;17.80;99.90;;;;;;5033751;28;20044;-96
2023/05/27 09:55:59;;;;;;;17.08;4.80;;;17.90;99.90;;;;;;5047046;28;20052;-96
2023/05/27 09:59:27;;;;;;;19.73;5.07;;;17.80;99.90;;;;;;5043431;28;20488;-96
2023/05/27 10:01:47;;;;;;;24.58;5.18;;;17.80;99.90;;;;;;5048746;28;20050;-95
2023/05/27 10:04:22;;;;;;;23.40;5.47;;;17.60;99.90;;;;;;5035792;28;20032;-93
2023/05/27 10:07:01;;;;;;;20.75;5.13;;;17.60;99.90;;;;;;5037815;28;20052;-93
2023/05/27 10:09:33;;;;;;;18.00;4.85;;;17.60;99.90;;;;;;5034621;28;20048;-91
2023/05/27 10:12:34;;;;;;;16.98;4.53;;;17.80;99.90;;;;;;5024776;28;20540;-93
2023/05/27 10:15:02;;;;;;;16.13;4.93;;;18.00;99.90;;;;;;5032825;28;20049;-92
2023/05/27 10:18:01;;;;;;;23.85;5.43;;;17.90;99.90;;;;;;5034479;28;20048;-92
2023/05/27 10:20:42;;;;;;;16.52;4.57;;;18.10;99.90;;;;;;4979130;28;20056;-91
2023/05/27 10:23:20;;;;;;;20.88;5.18;;;18.20;99.90;;;;;;5036381;28;20059;-91
2023/05/27 10:26:02;;;;;;;25.02;4.97;;;18.20;99.90;;;;;;5034606;28;20051;-92
2023/05/27 10:28:52;;;;;;;22.20;5.53;;;18.20;99.90;;;;;;5032009;28;20065;-93
2023/05/27 10:31:53;;;;;;;19.30;5.07;;;18.20;99.90;;;;;;5033391;28;20113;-93
2023/05/27 10:34:45;;;;;;;25.70;5.90;;;18.20;99.90;;;;;;5052052;28;20048;-92
2023/05/27 10:38:00;;;;;;;17.70;5.28;;;18.10;99.90;;;;;;5031824;28;20145;-94
2023/05/27 10:40:58;;;;;;;22.77;5.57;;;18.20;99.90;;;;;;5047636;28;20039;-96
2023/05/27 10:43:37;;;;;;;21.23;4.93;;;18.40;99.90;;;;;;5035100;22;20057;-94
2023/05/27 10:46:09;;;;;;;19.60;5.63;;;18.50;99.90;;;;;;5013499;28;20041;-95
2023/05/27 10:48:38;;;;;;;22.23;4.30;;;18.60;99.90;;;;;;4987740;28;20131;-94
2023/05/27 10:51:04;;;;;;;21.83;5.30;;;18.70;99.90;;;;;;4999739;28;20311;-95
2023/05/27 10:53:31;;;;;;;19.88;5.28;;;18.60;99.90;;;;;;5007867;28;20102;-95
2023/05/27 10:55:59;;;;;;;20.40;5.57;;;18.70;99.90;;;;;;5032587;28;20033;-94
2023/05/27 10:58:26;;;;;;;21.10;5.07;;;18.70;99.90;;;;;;5009392;28;20513;-94
2023/05/27 11:01:00;;;;;;;18.52;5.50;;;18.70;99.90;;;;;;5016514;28;20051;-95
2023/05/27 11:03:32;;;;;;;26.02;5.32;;;18.80;99.90;;;;;;5016195;28;20127;-95
2023/05/27 11:06:00;;;;;;;22.08;5.07;;;18.90;99.90;;;;;;5013381;28;20136;-96
2023/05/27 11:08:29;;;;;;;16.60;4.72;;;19.00;99.90;;;;;;5009299;28;20034;-95
2023/05/27 11:11:07;;;;;;;22.98;4.93;;;19.00;99.90;;;;;;5014109;28;20069;-95
2023/05/27 11:13:45;;;;;;;19.23;5.32;;;19.00;99.90;;;;;;5009056;28;20041;-96
2023/05/27 11:16:12;;;;;;;17.98;5.07;;;19.10;99.90;;;;;;5010704;28;20055;-95
2023/05/27 11:18:40;;;;;;;19.23;5.65;;;19.00;99.90;;;;;;5009048;28;20033;-95
2023/05/27 11:21:07;;;;;;;20.73;5.78;;;19.10;99.90;;;;;;5016166;28;20049;-95
2023/05/27 11:23:36;;;;;;;25.73;5.18;;;19.10;99.90;;;;;;5018222;28;20087;-95
2023/05/27 11:26:02;;;;;;;17.35;5.40;;;19.20;99.90;;;;;;5015720;28;20114;-95
2023/05/27 11:28:31;;;;;;;21.40;5.10;;;19.30;99.90;;;;;;5015911;28;20056;-96
2023/05/27 11:34:38;;;;;;;18.45;5.53;;;19.30;99.90;;;;;;4997190;28;20120;-96
2023/05/27 11:37:04;;;;;;;21.42;5.70;;;19.50;99.90;;;;;;5025435;23;20061;-95
2023/05/27 11:39:31;;;;;;;18.48;4.88;;;19.60;99.90;;;;;;5008494;28;20081;-96
2023/05/27 11:42:07;;;;;;;18.55;4.88;;;19.60;99.90;;;;;;4994307;28;20057;-96
2023/05/27 11:44:32;;;;;;;19.25;5.40;;;19.70;99.90;;;;;;4988183;28;20056;-96
2023/05/27 11:47:02;;;;;;;26.08;5.57;;;19.70;99.90;;;;;;4997481;28;20121;-96
2023/05/27 11:49:39;;;;;;;22.60;5.47;;;19.70;99.90;;;;;;4999800;28;20120;-96
2023/05/27 11:52:05;;;;;;;24.90;5.35;;;19.80;99.90;;;;;;5004666;28;20072;-96
2023/05/27 11:54:30;;;;;;;16.95;4.50;;;19.80;99.90;;;;;;5006253;28;20049;-96
2023/05/27 11:56:58;;;;;;;24.60;5.50;;;19.60;99.90;;;;;;4999397;28;20048;-96
2023/05/27 11:59:25;;;;;;;18.73;5.43;;;19.80;99.90;;;;;;4989726;28;20045;-96
2023/05/27 12:01:54;;;;;;;18.45;4.85;;;19.90;99.90;;;;;;4997928;28;20055;-96
2023/05/27 12:04:20;;;;;;;21.27;5.32;;;19.90;99.90;;;;;;5000228;28;20133;-96
2023/05/27 12:06:52;;;;;;;19.70;5.60;;;20.00;99.90;;;;;;4997284;28;20124;-96
2023/05/27 12:09:18;;;;;;;17.97;4.73;;;20.00;99.90;;;;;;4991750;28;20045;-95
2023/05/27 12:11:43;;;;;;;17.20;5.10;;;20.00;99.90;;;;;;4985561;28;20111;-96
2023/05/27 12:14:09;;;;;;;15.23;4.53;;;20.20;99.90;;;;;;4999119;28;20071;-95
2023/05/27 12:16:48;;;;;;;18.88;4.93;;;20.20;99.90;;;;;;4982969;28;20061;-95
2023/05/27 12:19:14;;;;;;;17.85;4.97;;;20.20;99.90;;;;;;4992291;28;20053;-95
2023/05/27 12:21:40;;;;;;;30.30;5.47;;;20.20;99.90;;;;;;4999601;28;20051;-96
2023/05/27 12:24:06;;;;;;;16.40;4.93;;;20.30;99.90;;;;;;4998215;28;20528;-96
2023/05/27 12:26:32;;;;;;;21.83;5.05;;;20.20;99.90;;;;;;4999464;28;20471;-96
2023/05/27 12:28:58;;;;;;;15.25;4.75;;;20.20;99.90;;;;;;4999155;28;20572;-94
2023/05/27 12:32:38;;;;;;;21.83;4.85;;;20.20;99.90;;;;;;5003288;28;20046;-96
2023/05/27 12:35:28;;;;;;;22.33;4.70;;;20.10;99.90;;;;;;4944238;28;20062;-96
2023/05/27 12:38:32;;;;;;;21.92;5.43;;;20.20;99.90;;;;;;4992900;28;20025;-96
2023/05/27 12:42:03;;;;;;;17.88;5.15;;;20.20;99.90;;;;;;4977441;28;20052;-96
2023/05/27 12:44:55;;;;;;;23.67;6.10;;;20.20;99.90;;;;;;4980482;28;20057;-96
2023/05/27 12:47:21;;;;;;;16.45;5.70;;;20.20;99.90;;;;;;4984163;28;20065;-96
2023/05/27 12:49:47;;;;;;;19.02;5.20;;;20.20;99.90;;;;;;4980223;28;20078;-96
2023/05/27 12:52:16;;;;;;;21.25;5.50;;;20.20;99.90;;;;;;5013813;28;20382;-96
2023/05/27 12:54:56;;;;;;;20.70;5.10;;;20.20;99.90;;;;;;4986175;28;20042;-95
2023/05/27 12:57:27;;;;;;;18.02;5.80;;;20.20;99.90;;;;;;4998473;28;20048;-96
2023/05/27 13:00:04;;;;;;;26.20;5.88;;;20.20;99.90;;;;;;4985645;28;20046;-96
2023/05/27 13:02:30;;;;;;;16.75;5.28;;;20.20;99.90;;;;;;4988846;28;20079;-96
2023/05/27 13:05:08;;;;;;;19.10;6.10;;;20.20;99.90;;;;;;4998378;28;20041;-96
2023/05/27 13:07:41;;;;;;;16.33;5.00;;;20.20;99.90;;;;;;4994721;28;20116;-96
2023/05/27 13:10:21;;;;;;;;;;;20.20;99.90;;;;;;4984325;28;20109;-96
2023/05/27 13:12:53;;;;;;;19.98;5.63;;;20.10;99.90;;;;;;4998266;28;19944;-96
2023/05/27 13:15:23;;;;;;;21.70;5.60;;;20.20;99.90;;;;;;4994564;28;20057;-96
2023/05/27 13:17:51;;;;;;;24.45;6.22;;;20.20;99.90;;;;;;4994531;28;20060;-96
2023/05/27 13:20:31;;;;;;;;;;;;;;;;;;;;;
2023/05/27 13:23:12;;;;;;;20.40;5.65;;;19.90;99.90;;;;;;5016072;28;20056;-96
2023/05/27 13:25:44;;;;;;;21.13;5.55;;;19.80;99.90;;;;;;4997262;28;20428;-96
2023/05/27 13:28:10;;;;;;;20.33;6.35;;;19.80;99.90;;;;;;5008028;28;20046;-95
2023/05/27 13:30:53;;;;;;;19.48;4.97;;;19.70;99.90;;;;;;5007942;28;20438;-94
2023/05/27 13:33:25;;;;;;;17.67;5.22;;;19.80;99.90;;;;;;4996700;28;20422;-95
2023/05/27 13:35:59;;;;;;;20.30;5.00;;;19.80;99.90;;;;;;4996541;28;20436;-96
2023/05/27 13:38:26;;;;;;;20.17;5.55;;;19.80;99.90;;;;;;4969037;28;20062;-94
2023/05/27 13:41:01;;;;;;;21.33;5.90;;;19.90;99.90;;;;;;4991707;28;20057;-96
2023/05/27 13:43:33;;;;;;;22.63;5.45;;;20.00;99.90;;;;;;4977729;28;20037;-95
2023/05/27 13:46:02;;;;;;;22.25;5.40;;;20.00;99.90;;;;;;4978275;28;20084;-95
2023/05/27 13:48:34;;;;;;;16.50;5.55;;;20.10;99.90;;;;;;4978204;28;20037;-95
2023/05/27 13:51:11;;;;;;;20.40;5.30;;;20.00;99.90;;;;;;4977485;28;20046;-96
2023/05/27 13:53:37;;;;;;;18.42;5.40;;;20.00;99.90;;;;;;4953505;28;20058;-96
2023/05/27 13:56:08;;;;;;;17.30;4.82;;;19.90;99.90;;;;;;4978367;28;20038;-96
2023/05/27 13:58:34;;;;;;;22.15;5.38;;;19.90;99.90;;;;;;4965136;28;20060;-96
2023/05/27 14:01:02;;;;;;;24.88;6.70;;;20.00;99.90;;;;;;4978819;28;20469;-96
2023/05/27 14:03:49;;;;;;;18.55;5.30;;;20.00;99.90;;;;;;4977398;28;20049;-96
2023/05/27 14:06:26;;;;;;;407.48;24.35;;;20.00;99.90;;;;;;4979222;28;20048;-96
2023/05/27 14:08:58;;;;;;;19.70;5.15;;;20.10;99.90;;;;;;4969583;28;20838;-96
2023/05/27 14:11:38;;;;;;;32.33;5.83;;;20.10;99.90;;;;;;4973703;28;20057;-96
2023/05/27 14:14:04;;;;;;;17.80;4.85;;;20.10;99.90;;;;;;4979631;28;20288;-96
2023/05/27 14:16:33;;;;;;;24.23;5.85;;;20.00;99.90;;;;;;4978704;28;20133;-96
2023/05/27 14:19:02;;;;;;;51.65;6.30;;;20.00;99.90;;;;;;4967139;28;20052;-96